Time;durP1;ratioP1;P1;durP2;ratioP2;P2;SDS_P1;SDS_P2;PMS_P1;PMS_P2;Temp;Humidity;BMP_temperature;BMP_pressure;BME280_temperature;BME280_humidity;BME280_pressure;Samples;Min_cycle;Max_cycle;Signal;HPM_P1;HPM_P2
2022/11/26 00:00:43;;;;;;;108.40;49.58;;;;;;;2.58;100.00;101018.22;5071926;28;20028;-77
2022/11/26 00:03:10;;;;;;;101.93;46.80;;;;;;;2.69;100.00;101016.06;5070749;28;20028;-79
2022/11/26 00:05:35;;;;;;;104.28;46.55;;;;;;;2.79;100.00;101015.13;5070453;28;20029;-78
2022/11/26 00:08:02;;;;;;;99.65;46.60;;;;;;;2.90;100.00;101018.63;5069232;28;20385;-77
2022/11/26 00:10:30;;;;;;;89.13;44.35;;;;;;;3.02;100.00;101011.63;5071229;28;20021;-77
2022/11/26 00:12:56;;;;;;;91.97;43.35;;;;;;;3.09;100.00;101012.31;5070580;28;20027;-77
2022/11/26 00:15:25;;;;;;;85.18;41.38;;;;;;;3.21;100.00;101017.41;5073402;28;20021;-76
2022/11/26 00:17:51;;;;;;;79.43;38.50;;;;;;;3.29;100.00;101014.44;5074921;28;20035;-79
2022/11/26 00:20:20;;;;;;;88.75;38.03;;;;;;;3.40;100.00;101015.91;5074981;28;20059;-79
2022/11/26 00:22:51;;;;;;;80.60;37.88;;;;;;;3.45;100.00;101012.59;5073673;28;20028;-77
2022/11/26 00:25:19;;;;;;;81.80;39.90;;;;;;;3.49;100.00;101010.50;5074237;28;20024;-78
2022/11/26 00:27:45;;;;;;;82.63;40.47;;;;;;;3.53;100.00;101019.72;5072976;28;20048;-78
2022/11/26 00:30:19;;;;;;;78.55;38.97;;;;;;;3.59;100.00;101020.84;5072510;28;20047;-77
2022/11/26 00:32:45;;;;;;;80.30;37.75;;;;;;;3.68;100.00;101014.66;5072907;28;20032;-78
2022/11/26 00:35:11;;;;;;;82.32;37.97;;;;;;;3.73;100.00;101022.66;5074335;28;20385;-78
2022/11/26 00:37:45;;;;;;;71.72;36.35;;;;;;;3.82;100.00;101014.41;5074620;28;20495;-78
2022/11/26 00:40:20;;;;;;;71.05;32.92;;;;;;;3.88;100.00;101018.41;5074915;28;20032;-78
2022/11/26 00:42:45;;;;;;;72.85;33.80;;;;;;;3.96;100.00;101024.75;5074549;28;20512;-78
2022/11/26 00:45:30;;;;;;;67.05;30.85;;;;;;;4.03;100.00;101030.25;5075488;28;20064;-78
2022/11/26 00:47:59;;;;;;;65.57;31.98;;;;;;;4.10;100.00;101029.34;5108306;28;20111;-78
2022/11/26 00:50:26;;;;;;;66.38;29.58;;;;;;;4.15;100.00;101031.69;5075939;28;20043;-78
2022/11/26 00:52:53;;;;;;;65.25;29.02;;;;;;;4.20;100.00;101022.69;5075872;28;20024;-78
2022/11/26 00:55:32;;;;;;;57.63;28.88;;;;;;;4.26;100.00;101032.28;5074795;28;20027;-78
2022/11/26 00:57:58;;;;;;;54.83;28.67;;;;;;;4.30;100.00;101025.34;5075966;28;20062;-78
2022/11/26 01:00:25;;;;;;;63.78;28.48;;;;;;;4.32;100.00;101020.03;5075607;28;20418;-78
2022/11/26 01:02:51;;;;;;;53.05;25.65;;;;;;;4.44;100.00;101032.75;5074239;28;20039;-78
2022/11/26 01:05:17;;;;;;;48.47;24.92;;;;;;;4.47;100.00;101029.84;5075356;28;20118;-78
2022/11/26 01:07:43;;;;;;;59.28;25.27;;;;;;;4.50;100.00;101028.22;5073882;28;20048;-77
2022/11/26 01:10:17;;;;;;;49.10;24.63;;;;;;;4.55;100.00;101030.53;5075489;28;20028;-78
2022/11/26 01:12:43;;;;;;;47.65;24.65;;;;;;;4.60;100.00;101023.56;5075784;28;20107;-77
2022/11/26 01:15:09;;;;;;;50.83;24.58;;;;;;;4.65;100.00;101028.72;5075219;28;20063;-78
2022/11/26 01:17:34;;;;;;;52.42;25.33;;;;;;;4.68;100.00;101027.84;5075527;28;20021;-79
2022/11/26 01:20:00;;;;;;;43.63;22.88;;;;;;;4.69;100.00;101030.25;5107786;28;20052;-78
2022/11/26 01:22:25;;;;;;;54.05;25.85;;;;;;;4.69;100.00;101029.44;5075271;28;20501;-79
2022/11/26 01:24:50;;;;;;;49.47;23.77;;;;;;;4.75;100.00;101036.22;5074001;28;20516;-79
2022/11/26 01:27:17;;;;;;;51.70;25.73;;;;;;;4.76;100.00;101041.41;5075269;28;20024;-79
2022/11/26 01:29:43;;;;;;;47.38;24.13;;;;;;;4.79;100.00;101036.94;5073668;28;20032;-78
2022/11/26 01:32:09;;;;;;;44.50;23.13;;;;;;;4.81;100.00;101040.09;5074799;28;20181;-78
2022/11/26 01:34:35;;;;;;;50.05;24.45;;;;;;;4.83;100.00;101032.78;5075058;28;20025;-78
2022/11/26 01:37:00;;;;;;;44.83;22.42;;;;;;;4.85;100.00;101033.16;5074616;28;20154;-79
2022/11/26 01:39:25;;;;;;;45.28;22.00;;;;;;;4.87;100.00;101032.72;5074598;28;20469;-79
2022/11/26 01:41:56;;;;;;;42.33;22.35;;;;;;;4.86;100.00;101037.56;5074912;28;20478;-79
2022/11/26 01:44:24;;;;;;;47.45;24.05;;;;;;;4.84;100.00;101040.06;5073292;28;20024;-79
2022/11/26 01:46:50;;;;;;;43.65;21.45;;;;;;;4.84;100.00;101048.56;5074576;28;20029;-79
2022/11/26 01:49:33;;;;;;;47.90;22.10;;;;;;;4.82;100.00;101036.84;5059115;28;20025;-78
2022/11/26 01:52:03;;;;;;;52.63;24.08;;;;;;;4.81;100.00;101029.59;5051524;28;20055;-78
2022/11/26 01:54:28;;;;;;;48.13;22.70;;;;;;;4.80;100.00;101032.88;5034357;28;20021;-78
2022/11/26 01:56:55;;;;;;;50.42;24.77;;;;;;;4.81;100.00;101035.25;5051328;28;20480;-78
2022/11/26 01:59:25;;;;;;;46.83;24.10;;;;;;;4.83;100.00;101046.16;5051228;28;20021;-78
2022/11/26 02:01:53;;;;;;;44.63;20.90;;;;;;;4.84;100.00;101042.88;5050920;28;20036;-79
2022/11/26 02:04:28;;;;;;;47.10;23.08;;;;;;;4.88;100.00;101048.47;5050804;28;20020;-79
2022/11/26 02:06:54;;;;;;;43.90;22.63;;;;;;;4.88;100.00;101054.94;5053120;28;20064;-78
2022/11/26 02:09:21;;;;;;;47.38;23.48;;;;;;;4.84;100.00;101037.22;5052696;28;20029;-78
2022/11/26 02:11:47;;;;;;;47.33;21.95;;;;;;;4.88;100.00;101048.47;5051957;28;20545;-78
2022/11/26 02:14:16;;;;;;;45.38;21.00;;;;;;;4.90;100.00;101048.84;5034062;28;20132;-78
2022/11/26 02:17:07;;;;;;;50.45;22.58;;;;;;;4.86;100.00;101045.25;5050406;28;20414;-78
2022/11/26 02:19:32;;;;;;;48.88;22.38;;;;;;;4.89;100.00;101053.72;5051708;28;20383;-78
2022/11/26 02:22:10;;;;;;;41.08;21.65;;;;;;;4.90;100.00;101060.97;5051638;28;20119;-78
2022/11/26 02:24:49;;;;;;;52.63;23.20;;;;;;;4.91;100.00;101051.22;5051054;28;20024;-78
2022/11/26 02:27:36;;;;;;;49.83;24.38;;;;;;;4.92;100.00;101057.69;5052438;28;20151;-79
2022/11/26 02:30:03;;;;;;;45.72;22.48;;;;;;;4.87;100.00;101061.03;5053875;28;20033;-79
2022/11/26 02:32:53;;;;;;;48.72;22.63;;;;;;;4.85;100.00;101053.00;5054236;28;20048;-78
2022/11/26 02:35:18;;;;;;;44.47;21.42;;;;;;;4.87;100.00;101058.19;5053942;28;20470;-79
2022/11/26 02:37:53;;;;;;;42.88;21.42;;;;;;;4.88;100.00;101063.44;5053564;28;20071;-79
2022/11/26 02:40:19;;;;;;;42.97;21.67;;;;;;;4.92;100.00;101066.19;5069071;28;20131;-78
2022/11/26 02:42:45;;;;;;;49.25;23.92;;;;;;;4.96;100.00;101063.31;5052626;28;20032;-78
2022/11/26 02:45:13;;;;;;;45.15;22.95;;;;;;;4.97;100.00;101062.03;5053373;28;20029;-79
2022/11/26 02:47:40;;;;;;;45.20;23.10;;;;;;;4.98;100.00;101064.44;5052322;28;20374;-79
2022/11/26 02:50:09;;;;;;;40.17;20.83;;;;;;;4.98;100.00;101069.31;5052116;28;20021;-79
2022/11/26 02:52:36;;;;;;;43.58;22.35;;;;;;;5.00;100.00;101066.84;5035899;28;20489;-79
2022/11/26 02:55:03;;;;;;;45.95;22.65;;;;;;;4.94;100.00;101064.53;5053354;28;20021;-79
2022/11/26 02:57:31;;;;;;;41.63;21.35;;;;;;;4.96;100.00;101066.91;5035434;28;20500;-78
2022/11/26 02:59:56;;;;;;;48.33;21.23;;;;;;;4.99;100.00;101076.56;5053218;28;20032;-78
2022/11/26 03:02:31;;;;;;;47.65;23.08;;;;;;;5.02;100.00;101072.84;5051952;28;20017;-78
2022/11/26 03:04:59;;;;;;;51.35;22.98;;;;;;;5.01;100.00;101074.88;5053237;28;20504;-79
2022/11/26 03:07:24;;;;;;;50.13;24.85;;;;;;;5.00;100.00;101078.19;5051831;28;20393;-79
2022/11/26 03:09:55;;;;;;;47.75;22.92;;;;;;;5.01;100.00;101074.88;5053345;28;20466;-79
2022/11/26 03:12:21;;;;;;;49.93;22.43;;;;;;;5.03;100.00;101077.28;5052151;28;20099;-79
2022/11/26 03:14:47;;;;;;;52.38;25.05;;;;;;;5.03;100.00;101080.94;5053092;28;20466;-78
2022/11/26 03:17:12;;;;;;;49.17;25.73;;;;;;;4.94;100.00;101070.19;5051838;28;20024;-79
2022/11/26 03:19:38;;;;;;;45.65;23.52;;;;;;;5.02;100.00;101085.00;5053081;28;20047;-78
2022/11/26 03:22:04;;;;;;;54.63;25.73;;;;;;;5.00;100.00;101089.50;5053203;28;20100;-78
2022/11/26 03:24:30;;;;;;;54.25;26.20;;;;;;;5.02;100.00;101095.50;5052952;28;20033;-79
2022/11/26 03:26:55;;;;;;;53.08;25.67;;;;;;;5.02;100.00;101090.66;5051731;28;20021;-79
2022/11/26 03:29:20;;;;;;;48.20;22.98;;;;;;;5.04;100.00;101093.88;5051692;28;20025;-79
2022/11/26 03:31:46;;;;;;;56.20;25.45;;;;;;;5.06;100.00;101094.22;5051651;28;20025;-78
2022/11/26 03:34:11;;;;;;;49.72;24.83;;;;;;;4.98;100.00;101084.28;5052982;28;20032;-78
2022/11/26 03:36:37;;;;;;;45.00;23.88;;;;;;;5.05;100.00;101094.66;5053018;28;20466;-77
2022/11/26 03:39:02;;;;;;;45.78;21.77;;;;;;;5.06;100.00;101099.88;5051608;28;20104;-78
2022/11/26 03:41:28;;;;;;;42.78;20.42;;;;;;;5.06;100.00;101099.06;5051570;28;20017;-78
2022/11/26 03:43:53;;;;;;;44.67;22.40;;;;;;;5.07;100.00;101103.50;5053017;28;20032;-78
2022/11/26 03:46:19;;;;;;;55.53;25.50;;;;;;;5.05;100.00;101109.63;5052593;28;20112;-78
2022/11/26 03:48:44;;;;;;;52.33;23.92;;;;;;;5.05;100.00;101108.81;5055006;28;20079;-78
2022/11/26 03:51:09;;;;;;;53.92;23.80;;;;;;;5.06;100.00;101107.56;5056973;28;20025;-79
2022/11/26 03:53:35;;;;;;;54.35;22.95;;;;;;;5.07;100.00;101104.31;5056743;28;20032;-79
2022/11/26 03:56:00;;;;;;;50.55;22.73;;;;;;;5.07;100.00;101100.69;5056761;28;20453;-79
2022/11/26 03:58:25;;;;;;;47.70;21.77;;;;;;;5.07;100.00;101112.81;5056711;28;20078;-79
2022/11/26 04:00:51;;;;;;;47.85;22.38;;;;;;;5.06;100.00;101111.19;5056578;28;20423;-79
2022/11/26 04:03:16;;;;;;;44.20;22.38;;;;;;;5.08;100.00;101107.94;5056739;28;20378;-79
2022/11/26 04:05:41;;;;;;;43.15;20.92;;;;;;;5.04;100.00;101113.69;5055003;28;20045;-79
2022/11/26 04:08:07;;;;;;;43.75;21.77;;;;;;;5.01;100.00;101108.88;5056402;28;20056;-79
2022/11/26 04:10:32;;;;;;;42.45;22.15;;;;;;;5.01;100.00;101119.41;5055266;28;20028;-78
2022/11/26 04:12:58;;;;;;;40.72;21.70;;;;;;;5.01;100.00;101116.56;5056410;28;20094;-78
2022/11/26 04:15:23;;;;;;;46.88;22.25;;;;;;;5.01;100.00;101114.53;5056212;28;20025;-79
2022/11/26 04:17:48;;;;;;;43.50;21.63;;;;;;;5.02;100.00;101121.81;5056221;28;20071;-79
2022/11/26 04:20:14;;;;;;;42.53;22.73;;;;;;;5.02;100.00;101123.84;5056178;28;20033;-79
2022/11/26 04:22:39;;;;;;;48.33;22.42;;;;;;;5.03;100.00;101120.59;5056140;28;20035;-78
2022/11/26 04:25:05;;;;;;;42.78;19.40;;;;;;;5.05;100.00;101126.63;5056164;28;20021;-79
2022/11/26 04:27:31;;;;;;;42.58;19.80;;;;;;;4.91;100.00;101098.56;5055852;28;20036;-79
2022/11/26 04:29:57;;;;;;;39.85;19.65;;;;;;;5.04;100.00;101127.84;5054816;28;20105;-78
2022/11/26 04:32:22;;;;;;;38.10;18.33;;;;;;;5.07;100.00;101123.34;5055868;28;20099;-78
2022/11/26 04:34:47;;;;;;;43.20;18.55;;;;;;;5.07;100.00;101129.00;5054823;28;20031;-78
2022/11/26 04:37:12;;;;;;;40.00;19.05;;;;;;;5.12;100.00;101132.13;5054738;28;20484;-78
2022/11/26 04:39:38;;;;;;;39.55;18.48;;;;;;;5.13;100.00;101130.09;5055904;28;20387;-78
2022/11/26 04:42:03;;;;;;;42.97;19.25;;;;;;;5.14;100.00;101129.69;5055982;28;20024;-78
2022/11/26 04:44:29;;;;;;;39.45;18.85;;;;;;;5.16;100.00;101132.06;5055869;28;20033;-79
2022/11/26 04:46:54;;;;;;;42.08;18.92;;;;;;;5.13;100.00;101147.09;5054361;28;20493;-79
2022/11/26 04:49:19;;;;;;;40.60;18.63;;;;;;;5.05;100.00;101140.78;5055990;28;20029;-79
2022/11/26 04:51:45;;;;;;;41.65;18.52;;;;;;;5.04;100.00;101138.38;5055975;28;20111;-79
2022/11/26 04:54:10;;;;;;;40.92;20.45;;;;;;;5.07;100.00;101151.66;5054480;28;20025;-77
2022/11/26 04:56:35;;;;;;;40.95;18.42;;;;;;;5.10;100.00;101156.47;5055497;28;20021;-79
2022/11/26 04:59:01;;;;;;;36.17;18.45;;;;;;;5.14;100.00;101151.53;5055179;28;20609;-78
2022/11/26 05:01:26;;;;;;;35.53;17.60;;;;;;;5.20;100.00;101152.63;5053973;28;20040;-78
2022/11/26 05:03:51;;;;;;;38.20;17.52;;;;;;;5.21;100.00;101152.19;5055275;28;20043;-80
2022/11/26 05:06:17;;;;;;;38.08;18.20;;;;;;;5.24;100.00;101161.84;5054996;28;20069;-78
2022/11/26 05:08:42;;;;;;;31.95;16.55;;;;;;;5.26;100.00;101156.53;5055293;28;20029;-79
2022/11/26 05:11:07;;;;;;;29.13;14.98;;;;;;;5.29;100.00;101158.50;5055309;28;20052;-78
2022/11/26 05:13:33;;;;;;;32.53;15.73;;;;;;;5.32;100.00;101154.81;5055255;28;20013;-79
2022/11/26 05:15:58;;;;;;;35.05;15.73;;;;;;;5.37;100.00;101165.63;5055121;28;20462;-79
2022/11/26 05:18:24;;;;;;;28.90;14.73;;;;;;;5.43;100.00;101161.06;5055645;28;20080;-79
2022/11/26 05:20:49;;;;;;;31.73;15.65;;;;;;;5.36;100.00;101141.34;5054074;28;20036;-79
2022/11/26 05:23:15;;;;;;;29.55;14.98;;;;;;;5.53;100.00;101162.88;5055384;28;20382;-79
2022/11/26 05:25:40;;;;;;;27.05;13.95;;;;;;;5.60;100.00;101171.19;5054200;28;20021;-78
2022/11/26 05:28:05;;;;;;;28.05;14.52;;;;;;;5.67;100.00;101170.25;5054973;28;20051;-78
2022/11/26 05:30:31;;;;;;;27.50;14.32;;;;;;;5.71;100.00;101182.31;5054768;28;20025;-79
2022/11/26 05:32:57;;;;;;;27.77;13.18;;;;;;;5.75;100.00;101175.34;5055157;28;20029;-79
2022/11/26 05:35:22;;;;;;;26.38;12.68;;;;;;;5.76;100.00;101176.94;5054019;28;20032;-78
2022/11/26 05:37:47;;;;;;;30.15;14.80;;;;;;;5.80;100.00;101180.50;5052648;28;20025;-78
2022/11/26 05:40:13;;;;;;;23.73;13.10;;;;;;;5.88;100.00;101180.34;5051302;28;20527;-78
2022/11/26 05:42:39;;;;;;;23.98;13.02;;;;;;;5.88;100.00;101186.81;5052573;28;20029;-78
2022/11/26 05:45:05;;;;;;;26.80;13.98;;;;;;;5.92;100.00;101186.72;5052416;28;20036;-78
2022/11/26 05:47:30;;;;;;;30.15;13.77;;;;;;;5.90;100.00;101187.16;5052544;28;20033;-79
2022/11/26 05:49:56;;;;;;;25.73;13.75;;;;;;;5.96;100.00;101198.78;5052452;28;20025;-78
2022/11/26 05:52:22;;;;;;;26.73;14.25;;;;;;;5.99;100.00;101207.22;5052931;28;20017;-79
2022/11/26 05:54:47;;;;;;;25.85;13.68;;;;;;;6.01;100.00;101199.06;5053315;28;20488;-79
2022/11/26 05:57:13;;;;;;;26.30;13.15;;;;;;;6.04;100.00;101200.25;5052218;28;20017;-78
2022/11/26 05:59:38;;;;;;;24.98;12.98;;;;;;;6.07;100.00;101203.00;5052039;28;20424;-78
2022/11/26 06:02:03;;;;;;;25.38;14.13;;;;;;;6.07;100.00;101205.84;5050764;28;20061;-78
2022/11/26 06:04:29;;;;;;;25.15;12.85;;;;;;;6.09;100.00;101209.00;5051063;28;20037;-79
2022/11/26 06:06:54;;;;;;;26.77;13.23;;;;;;;6.08;100.00;101204.59;5052134;28;20045;-79
2022/11/26 06:09:20;;;;;;;25.58;12.93;;;;;;;6.09;100.00;101197.66;5052056;28;20044;-79
2022/11/26 06:11:48;;;;;;;23.17;13.18;;;;;;;6.11;100.00;101211.41;5053378;28;20462;-79
2022/11/26 06:14:13;;;;;;;22.02;12.38;;;;;;;6.10;100.00;101213.47;5054165;28;20021;-79
2022/11/26 06:16:38;;;;;;;25.73;13.55;;;;;;;6.12;100.00;101210.19;5054317;28;20017;-79
2022/11/26 06:19:04;;;;;;;22.20;12.68;;;;;;;6.16;100.00;101217.38;5052986;28;20021;-79
2022/11/26 06:21:29;;;;;;;24.88;11.98;;;;;;;6.18;100.00;101214.09;5054128;28;20028;-79
2022/11/26 06:23:55;;;;;;;25.02;13.30;;;;;;;6.18;100.00;101222.63;5035936;28;20458;-78
2022/11/26 06:26:20;;;;;;;24.98;12.80;;;;;;;6.19;100.00;101222.16;5035936;28;20377;-78
2022/11/26 06:28:45;;;;;;;24.67;12.77;;;;;;;6.20;100.00;101226.59;5052362;28;20021;-78
2022/11/26 06:31:12;;;;;;;22.63;11.82;;;;;;;6.19;100.00;101229.88;5053500;28;20020;-78
2022/11/26 06:33:38;;;;;;;24.67;13.38;;;;;;;6.22;100.00;101238.31;5054002;28;20052;-78
2022/11/26 06:36:05;;;;;;;25.80;13.35;;;;;;;6.21;100.00;101244.44;5052610;28;20028;-78
2022/11/26 06:38:32;;;;;;;22.90;12.60;;;;;;;6.20;100.00;101240.78;5052334;28;20025;-78
2022/11/26 06:41:21;;;;;;;30.25;12.93;;;;;;;6.19;100.00;101252.56;5035809;28;20025;-76
2022/11/26 06:43:48;;;;;;;26.98;12.85;;;;;;;6.19;100.00;101250.53;5032817;28;20037;-78
2022/11/26 06:46:13;;;;;;;26.00;12.98;;;;;;;6.18;100.00;101248.97;5051737;28;20038;-78
2022/11/26 06:48:39;;;;;;;26.52;13.27;;;;;;;6.21;100.00;101261.47;5046253;28;20094;-78
2022/11/26 06:51:05;;;;;;;24.15;14.02;;;;;;;6.21;100.00;101258.63;5085872;28;20478;-76
2022/11/26 06:53:31;;;;;;;25.80;13.25;;;;;;;6.25;100.00;101262.19;5053754;28;20086;-78
2022/11/26 06:56:15;;;;;;;25.25;13.23;;;;;;;6.24;100.00;101266.25;5053385;28;20107;-77
2022/11/26 06:58:43;;;;;;;26.40;13.85;;;;;;;6.28;100.00;101269.81;5086042;28;20029;-78
2022/11/26 07:01:15;;;;;;;25.13;13.48;;;;;;;6.27;100.00;101271.06;5052263;28;20053;-77
2022/11/26 07:03:41;;;;;;;27.75;13.30;;;;;;;6.33;100.00;101277.84;5052237;28;20512;-78
2022/11/26 07:06:23;;;;;;;26.00;13.57;;;;;;;6.36;100.00;101274.13;5052971;28;20040;-78
2022/11/26 07:08:53;;;;;;;25.77;12.98;;;;;;;6.42;100.00;101286.56;5052798;28;20061;-78
2022/11/26 07:11:20;;;;;;;25.77;13.45;;;;;;;6.48;100.00;101286.84;5052153;28;20502;-75
2022/11/26 07:13:46;;;;;;;25.73;14.40;;;;;;;6.52;100.00;101293.22;5065273;28;20080;-78
2022/11/26 07:16:14;;;;;;;25.10;13.13;;;;;;;6.57;100.00;101290.69;5032138;28;20550;-80
2022/11/26 07:18:41;;;;;;;25.70;13.40;;;;;;;6.46;100.00;101283.63;5033621;28;20040;-77
2022/11/26 07:21:10;;;;;;;26.90;13.73;;;;;;;6.49;100.00;101292.06;5033277;28;20051;-78
2022/11/26 07:23:35;;;;;;;22.48;13.15;;;;;;;6.52;100.00;101305.41;5019474;28;20021;-75
2022/11/26 07:26:03;;;;;;;22.88;13.75;;;;;;;6.54;100.00;101304.94;5046956;28;20036;-78
2022/11/26 07:28:29;;;;;;;24.10;13.27;;;;;;;6.58;100.00;101309.28;5057663;28;20033;-80
2022/11/26 07:31:05;;;;;;;24.63;11.77;;;;;;;6.61;100.00;101308.44;5073269;28;20024;-78
2022/11/26 07:33:31;;;;;;;22.15;12.02;;;;;;;6.60;100.00;101317.38;5056617;28;20032;-77
2022/11/26 07:36:01;;;;;;;25.85;13.90;;;;;;;6.60;100.00;101320.22;5041159;28;20028;-78
2022/11/26 07:38:28;;;;;;;27.95;13.02;;;;;;;6.63;100.00;101322.19;5040161;28;20032;-75
2022/11/26 07:40:54;;;;;;;22.98;11.63;;;;;;;6.65;100.00;101325.38;5057833;28;20024;-75
2022/11/26 07:43:19;;;;;;;22.17;11.98;;;;;;;6.52;100.00;101308.22;5056853;28;20194;-78
2022/11/26 07:45:45;;;;;;;23.40;12.32;;;;;;;6.62;100.00;101338.44;5058031;28;20029;-77
2022/11/26 07:48:11;;;;;;;21.52;12.30;;;;;;;6.63;100.00;101330.72;5055906;28;20507;-75
2022/11/26 07:50:37;;;;;;;19.40;11.75;;;;;;;6.67;100.00;101334.25;5057490;28;20020;-75
2022/11/26 07:53:02;;;;;;;18.98;11.43;;;;;;;6.62;100.00;101332.75;5056928;28;20477;-76
2022/11/26 07:55:28;;;;;;;26.00;15.05;;;;;;;6.68;100.00;101337.91;5056787;28;20098;-74
2022/11/26 07:57:53;;;;;;;22.70;11.20;;;;;;;6.69;100.00;101340.28;5039627;28;20433;-75
2022/11/26 08:00:20;;;;;;;17.38;9.75;;;;;;;6.74;100.00;101344.63;5055838;28;20044;-74
2022/11/26 08:02:47;;;;;;;16.35;9.93;;;;;;;6.79;100.00;101346.97;5039000;28;20041;-74
2022/11/26 08:05:13;;;;;;;18.02;10.13;;;;;;;6.82;100.00;101343.25;5056965;28;20021;-77
2022/11/26 08:07:38;;;;;;;19.35;10.15;;;;;;;6.90;100.00;101348.31;5056560;28;20045;-76
2022/11/26 08:10:06;;;;;;;15.77;9.88;;;;;;;6.97;100.00;101348.16;5057504;28;20047;-76
2022/11/26 08:12:31;;;;;;;19.30;10.10;;;;;;;7.02;100.00;101338.31;5057262;28;20021;-71
2022/11/26 08:14:56;;;;;;;17.20;11.30;;;;;;;7.15;100.00;101347.72;5055525;28;20017;-74
2022/11/26 08:17:23;;;;;;;19.50;10.27;;;;;;;7.26;100.00;101345.41;5055237;28;20021;-74
2022/11/26 08:19:49;;;;;;;15.38;9.85;;;;;;;7.41;100.00;101360.06;5056861;28;20029;-73
2022/11/26 08:22:17;;;;;;;17.02;10.60;;;;;;;7.49;100.00;101356.59;5057039;28;20111;-74
2022/11/26 08:24:44;;;;;;;16.65;9.48;;;;;;;7.56;100.00;101357.66;5055951;28;20021;-75
2022/11/26 08:27:10;;;;;;;15.73;9.38;;;;;;;7.63;100.00;101352.56;5056003;28;20040;-74
2022/11/26 08:29:36;;;;;;;14.18;8.93;;;;;;;7.67;100.00;101358.94;5053960;28;20373;-73
2022/11/26 08:32:02;;;;;;;14.40;9.73;;;;;;;7.70;100.00;101363.75;5055023;28;20029;-74
2022/11/26 08:34:34;;;;;;;15.75;9.35;;;;;;;7.75;100.00;101353.88;5054102;28;20420;-77
2022/11/26 08:37:13;;;;;;;16.50;9.13;;;;;;;7.79;100.00;101363.91;5054955;28;20064;-74
2022/11/26 08:39:44;;;;;;;13.57;8.23;;;;;;;7.83;100.00;101369.50;5054940;28;20032;-72
2022/11/26 08:42:11;;;;;;;13.48;8.07;;;;;;;7.76;100.00;101364.03;5053435;28;20082;-74
2022/11/26 08:44:37;;;;;;;15.55;8.43;;;;;;;7.76;100.00;101366.88;5055428;28;20032;-75
2022/11/26 08:47:05;;;;;;;11.48;7.97;;;;;;;7.68;100.00;101382.50;5055814;28;20040;-72
2022/11/26 08:49:30;;;;;;;13.55;8.15;;;;;;;7.62;100.00;101382.25;5038363;28;20020;-76
2022/11/26 08:51:56;;;;;;;14.65;7.32;;;;;;;7.67;100.00;101383.78;5056440;28;20094;-74
2022/11/26 08:54:23;;;;;;;13.57;8.30;;;;;;;7.69;100.00;101378.44;5054405;28;20429;-73
2022/11/26 08:56:48;;;;;;;12.50;7.43;;;;;;;7.66;100.00;101388.66;5037929;28;20025;-72
2022/11/26 08:59:16;;;;;;;11.45;7.95;;;;;;;7.58;100.00;101375.84;5055726;28;20032;-72
2022/11/26 09:01:44;;;;;;;10.55;7.40;;;;;;;7.64;100.00;101396.84;5055565;28;20476;-73
2022/11/26 09:04:10;;;;;;;13.02;7.22;;;;;;;7.70;100.00;101402.78;5055591;28;20028;-72
2022/11/26 09:06:36;;;;;;;11.48;7.95;;;;;;;7.79;100.00;101391.56;5055137;28;20505;-73
2022/11/26 09:09:12;;;;;;;17.38;9.07;;;;;;;7.79;100.00;101398.06;5055463;28;20025;-72
2022/11/26 09:11:50;;;;;;;16.35;9.65;;;;;;;7.83;100.00;101400.81;5055874;28;20020;-73
2022/11/26 09:14:18;;;;;;;13.80;8.82;;;;;;;7.81;100.00;101409.81;5037939;28;20037;-74
2022/11/26 09:16:45;;;;;;;10.68;7.10;;;;;;;7.81;100.00;101403.31;5054479;28;20036;-74
2022/11/26 09:19:12;;;;;;;9.88;5.95;;;;;;;7.88;100.00;101414.47;5053846;28;20154;-75
2022/11/26 09:21:38;;;;;;;6.10;4.38;;;;;;;7.98;100.00;101414.19;5054108;28;20024;-74
2022/11/26 09:24:03;;;;;;;7.55;4.53;;;;;;;8.10;100.00;101409.03;5054999;28;20407;-72
2022/11/26 09:26:31;;;;;;;6.80;4.30;;;;;;;8.20;100.00;101413.66;5037097;28;20108;-73
2022/11/26 09:28:56;;;;;;;7.25;4.32;;;;;;;8.27;100.00;101417.09;5037085;28;20055;-74
2022/11/26 09:31:23;;;;;;;7.05;4.40;;;;;;;8.29;100.00;101414.59;5053475;28;20033;-73
2022/11/26 09:33:49;;;;;;;4.97;3.83;;;;;;;8.30;100.00;101407.66;5055243;28;20021;-75
2022/11/26 09:36:15;;;;;;;6.00;4.22;;;;;;;8.35;100.00;101407.13;5037121;28;20083;-71
2022/11/26 09:38:41;;;;;;;5.20;3.38;;;;;;;8.32;100.00;101402.31;5054754;28;20060;-74
2022/11/26 09:41:29;;;;;;;5.30;3.92;;;;;;;8.36;100.00;101405.84;5054173;28;20051;-74
2022/11/26 09:44:10;;;;;;;6.15;3.80;;;;;;;8.42;100.00;101406.09;5056444;28;20068;-75
2022/11/26 09:47:17;;;;;;;5.15;4.07;;;;;;;8.32;100.00;101404.34;5056948;28;20033;-74
2022/11/26 09:49:51;;;;;;;9.93;4.15;;;;;;;8.24;100.00;101406.63;5052327;28;20037;-74
2022/11/26 09:52:20;;;;;;;7.95;4.53;;;;;;;8.19;100.00;101409.19;5054758;28;20143;-76
2022/11/26 09:54:49;;;;;;;4.65;3.75;;;;;;;8.23;100.00;101407.84;5037356;28;20445;-75
2022/11/26 09:57:23;;;;;;;5.55;4.22;;;;;;;8.32;100.00;101413.69;5020638;28;20104;-74
2022/11/26 09:59:49;;;;;;;5.65;4.25;;;;;;;8.43;100.00;101409.75;5053927;28;20047;-76
2022/11/26 10:08:24;;;;;;;5.18;4.13;;;;;;;8.38;100.00;101414.75;5109680;27;1324890;-79
2022/11/26 10:10:59;;;;;;;5.68;4.03;;;;;;;8.50;100.00;101418.91;5131264;28;20058;-76
2022/11/26 10:14:22;;;;;;;4.95;4.20;;;;;;;8.70;100.00;101422.38;5131381;27;20023;-73
2022/11/26 10:17:04;;;;;;;5.97;4.30;;;;;;;8.69;100.00;101419.97;5131868;27;20081;-75
2022/11/26 10:20:10;;;;;;;7.13;4.65;;;;;;;8.76;100.00;101422.56;5130406;28;20103;-74
2022/11/26 10:22:50;;;;;;;7.40;5.00;;;;;;;8.89;100.00;101425.47;5111056;28;20028;-73
2022/11/26 10:25:24;;;;;;;10.25;4.68;;;;;;;8.92;100.00;101428.19;5112701;28;20028;-83
2022/11/26 10:27:49;;;;;;;7.35;4.93;;;;;;;8.90;100.00;101419.31;5113206;28;20043;-80
2022/11/26 10:30:27;;;;;;;5.53;4.07;;;;;;;8.88;100.00;101415.31;5113942;28;20028;-79
2022/11/26 10:32:54;;;;;;;6.80;4.28;;;;;;;8.79;100.00;101422.50;5117541;28;20118;-80
2022/11/26 10:35:22;;;;;;;5.88;4.10;;;;;;;8.82;100.00;101430.13;5117955;28;20472;-81
2022/11/26 10:37:50;;;;;;;5.55;4.05;;;;;;;8.86;100.00;101430.00;5137329;27;20520;-82
2022/11/26 10:40:27;;;;;;;7.13;4.32;;;;;;;8.97;100.00;101429.69;5132680;28;20035;-79
2022/11/26 10:43:09;;;;;;;7.60;3.92;;;;;;;8.98;100.00;101425.59;5131764;27;20033;-80
2022/11/26 10:45:36;;;;;;;;;;;;;;;8.97;100.00;101429.69;5130748;28;20024;-79
2022/11/26 10:48:20;;;;;;;6.38;3.60;;;;;;;8.89;100.00;101434.03;5130270;28;19923;-77
2022/11/26 10:51:10;;;;;;;4.13;3.53;;;;;;;8.77;100.00;101432.72;5130878;28;20027;-77
2022/11/26 10:53:54;;;;;;;5.20;3.67;;;;;;;8.67;100.00;101431.00;5133213;28;20112;-80
2022/11/26 10:56:23;;;;;;;5.15;3.95;;;;;;;8.61;100.00;101430.75;5115544;28;20031;-77
2022/11/26 10:58:56;;;;;;;4.28;3.55;;;;;;;8.73;100.00;101432.84;5112879;28;20027;-78
2022/11/26 11:01:22;;;;;;;13.45;4.60;;;;;;;8.90;100.00;101436.44;5127525;28;20024;-79
2022/11/26 11:03:51;;;;;;;5.70;4.07;;;;;;;9.02;100.00;101432.78;5111900;28;20104;-77
2022/11/26 11:06:36;;;;;;;4.85;3.63;;;;;;;9.14;100.00;101434.84;5118537;28;20047;-77
2022/11/26 11:09:29;;;;;;;6.80;4.53;;;;;;;9.16;100.00;101438.03;5123400;28;20040;-78
2022/11/26 11:12:18;;;;;;;8.80;4.97;;;;;;;9.10;100.00;101439.84;5110899;28;20035;-78
2022/11/26 11:14:44;;;;;;;6.97;5.32;;;;;;;8.92;100.00;101442.44;5113371;28;20027;-79
2022/11/26 11:17:29;;;;;;;8.48;6.70;;;;;;;8.76;100.00;101443.31;5108997;28;20111;-75
2022/11/26 11:19:57;;;;;;;8.60;6.50;;;;;;;8.64;100.00;101449.81;5096521;28;20039;-74
2022/11/26 11:22:23;;;;;;;8.77;6.53;;;;;;;8.66;100.00;101449.34;5095257;28;20044;-74
2022/11/26 11:24:49;;;;;;;16.73;7.60;;;;;;;8.66;100.00;101455.84;5096244;28;20082;-73